createdAt,value
2018-11-27T00:02:20.884Z,15.53
2018-11-27T00:05:02.239Z,17.62
2018-11-27T00:07:38.812Z,22.77
2018-11-27T00:15:57.910Z,23.40
2018-11-27T00:18:39.368Z,24.52
2018-11-27T00:21:17.688Z,24.90
2018-11-27T00:23:58.282Z,26.73
2018-11-27T00:26:39.570Z,23.83
2018-11-27T00:29:17.829Z,20.72
2018-11-27T00:31:56.108Z,26.62
2018-11-27T00:34:31.990Z,24.05
2018-11-27T00:37:09.435Z,26.35
2018-11-27T00:39:47.954Z,30.48
2018-11-27T00:42:24.342Z,26.87
2018-11-27T00:44:59.552Z,27.50
2018-11-27T00:47:36.717Z,25.40
2018-11-27T00:50:16.740Z,26.37
2018-11-27T00:52:52.857Z,28.05
2018-11-27T00:58:11.365Z,28.55
2018-11-27T01:00:48.588Z,28.07
2018-11-27T01:03:33.688Z,31.30
2018-11-27T01:06:12.343Z,26.93
2018-11-27T01:08:51.724Z,29.27
2018-11-27T01:11:31.434Z,26.97
2018-11-27T01:14:11.503Z,24.12
2018-11-27T01:16:48.909Z,27.62
2018-11-27T01:19:26.040Z,29.40
2018-11-27T01:22:03.254Z,30.75
2018-11-27T01:24:39.313Z,26.12
2018-11-27T01:27:16.487Z,25.48
2018-11-27T01:29:53.494Z,27.02
2018-11-27T01:32:30.051Z,27.42
2018-11-27T01:35:06.357Z,26.75
2018-11-27T01:37:41.299Z,30.05
2018-11-27T01:40:22.627Z,24.20
2018-11-27T01:43:00.943Z,26.12
2018-11-27T01:45:39.803Z,29.70
2018-11-27T01:48:19.752Z,28.77
2018-11-27T01:51:02.379Z,26.12
2018-11-27T01:53:47.382Z,29.80
2018-11-27T01:56:28.906Z,29.52
2018-11-27T01:59:10.014Z,24.90
2018-11-27T02:01:45.643Z,28.67
2018-11-27T02:04:21.499Z,29.40
2018-11-27T02:07:11.439Z,25.12
2018-11-27T02:09:51.428Z,25.77
2018-11-27T02:12:30.979Z,26.57
2018-11-27T02:15:10.685Z,27.87
2018-11-27T02:17:47.531Z,22.50
2018-11-27T02:23:04.195Z,30.15
2018-11-27T02:25:44.488Z,28.40
2018-11-27T02:28:26.508Z,26.23
2018-11-27T02:31:12.035Z,28.90
2018-11-27T02:33:54.218Z,29.67
2018-11-27T02:36:32.668Z,27.85
2018-11-27T02:39:09.173Z,28.70
2018-11-27T02:41:44.164Z,27.32
2018-11-27T02:44:28.348Z,30.05
2018-11-27T02:47:03.829Z,30.27
2018-11-27T02:49:39.547Z,26.62
2018-11-27T02:52:14.813Z,29.10
2018-11-27T02:54:50.897Z,28.38
2018-11-27T02:57:26.237Z,27.30
2018-11-27T03:00:02.113Z,32.17
2018-11-27T03:02:37.839Z,31.00
2018-11-27T03:05:25.802Z,30.10
2018-11-27T03:08:01.229Z,25.72
2018-11-27T03:10:36.113Z,32.93
2018-11-27T03:13:11.744Z,29.72
2018-11-27T03:15:48.284Z,26.35
2018-11-27T03:18:22.933Z,30.90
2018-11-27T03:20:58.376Z,32.00
2018-11-27T03:23:34.925Z,31.40
2018-11-27T03:26:13.235Z,32.58
2018-11-27T03:28:48.368Z,31.87
2018-11-27T03:31:26.487Z,28.60
2018-11-27T03:34:09.303Z,31.73
2018-11-27T03:36:44.734Z,30.90
2018-11-27T03:39:19.834Z,35.92
2018-11-27T03:41:56.966Z,31.30
2018-11-27T03:44:39.287Z,36.70
2018-11-27T03:47:19.204Z,34.73
2018-11-27T03:49:57.688Z,37.48
2018-11-27T03:52:37.141Z,33.83
2018-11-27T03:55:15.208Z,36.85
2018-11-27T03:57:51.142Z,37.00
2018-11-27T04:00:29.083Z,35.08
2018-11-27T04:03:10.399Z,38.28
2018-11-27T04:05:49.841Z,41.37
2018-11-27T04:08:26.548Z,35.50
2018-11-27T04:11:04.852Z,40.65
2018-11-27T04:13:43.925Z,38.30
2018-11-27T04:16:23.015Z,39.88
2018-11-27T04:19:00.833Z,41.50
2018-11-27T04:21:40.054Z,37.10
2018-11-27T04:24:15.333Z,37.10
2018-11-27T04:26:58.169Z,37.25
2018-11-27T04:29:35.764Z,38.45
2018-11-27T04:32:10.536Z,41.75
2018-11-27T04:34:48.025Z,39.67
2018-11-27T04:37:24.907Z,42.10
2018-11-27T04:40:00.397Z,38.30
2018-11-27T04:42:38.574Z,38.63
2018-11-27T04:45:23.674Z,43.17
2018-11-27T04:47:58.964Z,44.20
2018-11-27T04:50:36.440Z,38.60
2018-11-27T04:53:14.619Z,40.20
2018-11-27T04:55:50.129Z,47.55
2018-11-27T04:58:26.020Z,43.28
2018-11-27T05:01:03.820Z,39.65
2018-11-27T05:03:44.903Z,40.67
2018-11-27T05:06:20.538Z,49.00
2018-11-27T05:08:56.881Z,42.20
2018-11-27T05:11:41.795Z,45.70
2018-11-27T05:17:00.153Z,44.35
2018-11-27T05:19:37.647Z,48.58
2018-11-27T05:22:13.446Z,48.42
2018-11-27T05:24:49.221Z,46.33
2018-11-27T05:27:34.599Z,46.63
2018-11-27T05:30:19.544Z,48.17
2018-11-27T05:32:55.673Z,44.20
2018-11-27T05:35:32.221Z,49.15
2018-11-27T05:38:11.360Z,45.05
2018-11-27T05:40:49.510Z,41.15
2018-11-27T05:43:28.430Z,48.65
2018-11-27T05:46:03.875Z,42.70
2018-11-27T05:48:39.946Z,48.68
2018-11-27T05:51:19.272Z,47.58
2018-11-27T05:54:00.871Z,46.37
2018-11-27T05:56:40.017Z,46.98
2018-11-27T05:59:18.782Z,48.23
2018-11-27T06:01:55.102Z,40.85
2018-11-27T06:04:31.086Z,47.95
2018-11-27T06:07:06.338Z,46.68
2018-11-27T06:09:41.178Z,46.63
2018-11-27T06:14:58.951Z,56.98
2018-11-27T06:17:40.257Z,53.63
2018-11-27T06:20:24.357Z,49.40
2018-11-27T06:22:59.660Z,44.50
2018-11-27T06:25:36.570Z,52.40
2018-11-27T06:28:22.844Z,57.30
2018-11-27T06:31:02.629Z,48.15
2018-11-27T06:33:44.938Z,53.50
2018-11-27T06:36:23.915Z,49.65
2018-11-27T06:41:58.032Z,53.25
2018-11-27T06:44:32.983Z,53.70
2018-11-27T06:47:15.224Z,48.95
2018-11-27T06:50:01.958Z,51.68
2018-11-27T06:52:46.948Z,63.17
2018-11-27T06:55:35.416Z,53.87
2018-11-27T06:58:12.807Z,54.75
2018-11-27T07:00:52.736Z,52.65
2018-11-27T07:03:29.771Z,56.33
2018-11-27T07:06:09.945Z,46.28
2018-11-27T07:08:49.301Z,58.13
2018-11-27T07:11:27.104Z,65.05
2018-11-27T07:14:05.448Z,49.67
2018-11-27T07:16:47.181Z,55.15
2018-11-27T07:19:22.199Z,56.20
2018-11-27T07:22:02.700Z,55.70
2018-11-27T07:24:38.057Z,49.35
2018-11-27T07:27:12.363Z,55.98
2018-11-27T07:32:32.774Z,58.42
2018-11-27T07:35:15.678Z,54.35
2018-11-27T07:37:54.291Z,64.65
2018-11-27T07:40:29.774Z,51.60
2018-11-27T07:43:06.275Z,48.20
2018-11-27T07:45:40.891Z,55.48
2018-11-27T07:48:22.926Z,58.33
2018-11-27T07:51:05.767Z,52.10
2018-11-27T07:53:40.225Z,51.90
2018-11-27T07:56:14.622Z,56.68
2018-11-27T07:58:48.953Z,48.65
2018-11-27T08:01:23.313Z,46.45
2018-11-27T08:03:58.245Z,44.85
2018-11-27T08:06:33.075Z,53.25
2018-11-27T08:09:09.912Z,45.83
2018-11-27T08:11:44.862Z,51.17
2018-11-27T08:14:20.103Z,50.88
2018-11-27T08:17:04.665Z,47.50
2018-11-27T08:19:39.777Z,49.03
2018-11-27T08:22:18.285Z,48.83
2018-11-27T08:24:52.881Z,48.83
2018-11-27T08:27:28.166Z,50.17
2018-11-27T08:30:02.570Z,49.48
2018-11-27T08:32:37.615Z,44.18
2018-11-27T08:35:18.757Z,45.60
2018-11-27T08:37:55.700Z,50.38
2018-11-27T08:40:32.471Z,47.62
2018-11-27T08:43:10.259Z,48.90
2018-11-27T08:45:45.284Z,53.65
2018-11-27T08:48:22.592Z,59.42
2018-11-27T08:51:00.597Z,48.38
2018-11-27T08:53:35.734Z,52.93
2018-11-27T08:56:14.195Z,48.08
2018-11-27T08:58:50.401Z,55.35
2018-11-27T09:01:24.983Z,62.73
2018-11-27T09:03:59.468Z,50.45
2018-11-27T09:06:34.797Z,50.60
2018-11-27T09:09:10.207Z,50.28
2018-11-27T09:11:44.557Z,57.10
2018-11-27T09:14:20.084Z,51.60
2018-11-27T09:16:55.278Z,46.63
2018-11-27T09:19:30.235Z,50.23
2018-11-27T09:22:04.589Z,57.95
2018-11-27T09:24:38.891Z,51.85
2018-11-27T09:27:13.974Z,46.88
2018-11-27T09:29:48.739Z,46.55
2018-11-27T09:32:29.338Z,45.95
2018-11-27T09:41:13.578Z,54.63
2018-11-27T09:43:49.142Z,55.95
2018-11-27T09:46:26.732Z,55.63
2018-11-27T09:49:03.500Z,53.70
2018-11-27T09:51:42.883Z,44.58
2018-11-27T09:54:19.266Z,49.48
2018-11-27T09:56:54.298Z,55.98
2018-11-27T09:59:29.796Z,55.88
2018-11-27T10:02:04.254Z,52.40
2018-11-27T10:04:38.805Z,49.58
2018-11-27T10:07:13.594Z,47.88
2018-11-27T10:09:47.991Z,48.63
2018-11-27T10:12:22.316Z,53.38
2018-11-27T10:14:56.875Z,46.30
2018-11-27T10:17:31.403Z,47.65
2018-11-27T10:20:08.554Z,53.60
2018-11-27T10:22:43.318Z,42.62
2018-11-27T10:25:17.750Z,47.38
2018-11-27T10:27:52.453Z,45.20
2018-11-27T10:30:28.536Z,50.30
2018-11-27T10:33:03.921Z,47.13
2018-11-27T10:35:44.241Z,48.40
2018-11-27T10:38:19.144Z,56.48
2018-11-27T10:40:54.695Z,54.48
2018-11-27T10:43:29.158Z,49.10
2018-11-27T10:46:04.171Z,53.15
2018-11-27T10:48:38.860Z,48.13
2018-11-27T10:57:16.615Z,41.05
2018-11-27T11:05:32.362Z,36.80
2018-11-27T11:08:10.244Z,44.20
2018-11-27T11:10:48.082Z,42.58
2018-11-27T11:13:25.646Z,39.90
2018-11-27T11:16:05.079Z,40.20
2018-11-27T11:18:49.129Z,43.00
2018-11-27T11:21:35.608Z,35.40
2018-11-27T11:24:12.852Z,38.83
2018-11-27T11:32:27.301Z,40.92
2018-11-27T11:35:11.985Z,42.78
2018-11-27T11:37:51.549Z,38.67
2018-11-27T11:43:37.536Z,38.90
2018-11-27T11:46:18.389Z,38.20
2018-11-27T11:49:01.976Z,34.80
2018-11-27T11:51:38.015Z,39.92
2018-11-27T11:57:12.038Z,36.38
2018-11-27T11:59:56.868Z,33.18
2018-11-27T12:02:40.543Z,33.65
2018-11-27T12:05:25.070Z,34.95
2018-11-27T12:08:04.617Z,34.43
2018-11-27T12:10:42.104Z,30.10
2018-11-27T12:13:21.950Z,36.05
2018-11-27T12:18:58.356Z,39.33
2018-11-27T12:21:40.666Z,34.63
2018-11-27T12:24:23.415Z,29.45
2018-11-27T12:27:00.785Z,35.40
2018-11-27T12:29:49.347Z,35.28
2018-11-27T12:35:08.095Z,32.95
2018-11-27T12:37:44.344Z,33.15
2018-11-27T12:40:32.644Z,30.15
2018-11-27T12:43:11.756Z,30.62
2018-11-27T12:46:06.309Z,34.40
2018-11-27T12:58:37.209Z,29.15
2018-11-27T13:01:16.996Z,27.25
2018-11-27T13:06:45.838Z,32.33
2018-11-27T13:09:34.908Z,24.63
2018-11-27T13:12:10.122Z,25.60
2018-11-27T13:14:52.393Z,27.98
2018-11-27T13:17:31.486Z,26.93
2018-11-27T13:20:12.197Z,22.55
2018-11-27T13:22:49.014Z,22.37
2018-11-27T13:25:25.703Z,22.35
2018-11-27T13:28:01.866Z,21.52
2018-11-27T13:31:12.123Z,23.12
2018-11-27T13:34:01.775Z,24.12
2018-11-27T13:36:37.180Z,20.95
2018-11-27T13:39:25.476Z,19.82
2018-11-27T13:42:01.348Z,18.25
2018-11-27T13:44:40.734Z,21.27
2018-11-27T13:47:17.379Z,19.75
2018-11-27T13:49:52.948Z,19.37
2018-11-27T13:52:32.434Z,17.27
2018-11-27T13:55:12.131Z,18.37
2018-11-27T13:57:48.457Z,17.02
2018-11-27T14:00:23.470Z,15.80
2018-11-27T14:02:59.063Z,15.63
2018-11-27T14:05:34.043Z,14.40
2018-11-27T14:08:10.345Z,18.32
2018-11-27T14:10:47.199Z,15.70
2018-11-27T14:13:22.250Z,17.67
2018-11-27T14:15:58.268Z,17.12
2018-11-27T14:18:32.959Z,16.75
2018-11-27T14:24:04.696Z,20.23
2018-11-27T14:26:39.157Z,19.55
2018-11-27T14:29:16.904Z,18.15
2018-11-27T14:31:53.163Z,20.23
2018-11-27T14:34:28.612Z,23.35
2018-11-27T14:37:03.660Z,18.27
2018-11-27T14:39:38.769Z,19.30
2018-11-27T14:42:14.359Z,20.10
2018-11-27T14:44:48.901Z,20.82
2018-11-27T14:47:24.276Z,20.35
2018-11-27T14:50:03.969Z,18.82
2018-11-27T14:52:33.837Z,17.10
2018-11-27T14:55:10.978Z,19.45
2018-11-27T14:57:45.486Z,21.95
2018-11-27T15:00:22.159Z,19.87
2018-11-27T15:02:56.812Z,19.85
2018-11-27T15:05:43.971Z,22.10
2018-11-27T15:08:19.267Z,21.05
2018-11-27T15:10:55.408Z,18.77
2018-11-27T15:13:31.119Z,23.67
2018-11-27T15:16:06.133Z,21.17
2018-11-27T15:18:47.410Z,17.80
2018-11-27T15:21:21.923Z,24.18
2018-11-27T15:23:56.493Z,18.23
2018-11-27T15:26:31.008Z,21.25
2018-11-27T15:29:05.483Z,22.90
2018-11-27T15:31:40.218Z,23.65
2018-11-27T15:34:14.660Z,27.22
2018-11-27T15:36:49.131Z,24.00
2018-11-27T15:39:23.419Z,26.25
2018-11-27T15:41:58.002Z,21.20
2018-11-27T15:44:32.487Z,27.07
2018-11-27T15:47:07.023Z,21.97
2018-11-27T15:49:41.496Z,27.02
2018-11-27T15:52:15.787Z,23.90
2018-11-27T15:54:50.575Z,24.98
2018-11-27T15:57:25.273Z,26.80
2018-11-27T15:59:59.756Z,27.58
2018-11-27T16:02:34.337Z,24.32
2018-11-27T16:05:09.238Z,26.05
2018-11-27T16:07:43.755Z,31.20
2018-11-27T16:10:19.171Z,24.80
2018-11-27T16:12:53.709Z,25.02
2018-11-27T16:15:28.363Z,32.25
2018-11-27T16:18:03.880Z,25.35
2018-11-27T16:20:38.500Z,30.48
2018-11-27T16:23:13.812Z,27.65
2018-11-27T16:25:48.566Z,24.43
2018-11-27T16:28:24.338Z,29.37
2018-11-27T16:30:59.965Z,31.73
2018-11-27T16:33:44.322Z,28.15
2018-11-27T16:36:28.224Z,28.77
2018-11-27T16:41:59.179Z,26.10
2018-11-27T16:44:45.174Z,26.42
2018-11-27T16:47:21.299Z,28.20
2018-11-27T16:49:59.265Z,26.05
2018-11-27T16:52:54.895Z,28.12
2018-11-27T16:55:43.281Z,27.93
2018-11-27T16:58:24.828Z,30.02
2018-11-27T17:01:08.987Z,28.40
2018-11-27T17:03:50.746Z,31.30
2018-11-27T17:09:22.520Z,30.95
2018-11-27T17:14:41.981Z,34.48
2018-11-27T17:21:16.922Z,29.85
2018-11-27T17:23:57.690Z,34.00
2018-11-27T17:26:43.706Z,31.77
2018-11-27T17:29:18.011Z,28.40
2018-11-27T17:31:52.327Z,26.57
2018-11-27T17:34:32.135Z,32.85
2018-11-27T17:37:08.151Z,30.12
2018-11-27T17:39:43.992Z,33.48
2018-11-27T17:42:19.837Z,28.42
2018-11-27T17:44:54.251Z,25.52
2018-11-27T17:47:28.904Z,30.25
2018-11-27T17:50:03.137Z,26.27
2018-11-27T17:56:23.371Z,30.08
2018-11-27T17:59:15.139Z,33.23
2018-11-27T19:09:29.413Z,28.90
2018-11-27T19:12:08.271Z,31.45
2018-11-27T19:14:51.363Z,33.48
2018-11-27T19:17:42.325Z,31.37
2018-11-27T19:23:23.826Z,30.32
2018-11-27T19:26:13.477Z,30.27
2018-11-27T19:29:00.396Z,32.35
2018-11-27T19:37:17.287Z,32.75
2018-11-27T19:39:55.956Z,31.45
2018-11-27T19:42:31.972Z,36.40
2018-11-27T19:45:13.128Z,33.18
2018-11-27T19:47:49.496Z,32.33
2018-11-27T19:50:31.009Z,37.28
2018-11-27T19:53:16.583Z,33.00
2018-11-27T19:55:59.782Z,35.20
2018-11-27T19:58:42.148Z,39.13
2018-11-27T20:01:26.042Z,42.05
2018-11-27T20:04:00.880Z,38.30
2018-11-27T20:06:37.873Z,37.50
2018-11-27T20:09:18.719Z,33.65
2018-11-27T20:11:54.468Z,33.30
2018-11-27T20:14:29.737Z,36.70
2018-11-27T20:17:04.090Z,36.55
2018-11-27T20:19:40.933Z,42.62
2018-11-27T20:22:16.587Z,36.25
2018-11-27T20:24:52.465Z,40.38
2018-11-27T20:27:29.085Z,40.70
2018-11-27T20:30:04.940Z,40.20
2018-11-27T20:32:40.647Z,43.95
2018-11-27T20:35:15.992Z,40.90
2018-11-27T20:37:51.962Z,36.40
2018-11-27T20:40:29.009Z,48.20
2018-11-27T20:43:03.881Z,47.25
2018-11-27T20:45:38.844Z,40.70
2018-11-27T20:48:20.075Z,38.92
2018-11-27T20:50:55.240Z,39.00
2018-11-27T20:53:30.520Z,37.63
2018-11-27T20:56:10.183Z,50.88
2018-11-27T20:58:44.671Z,43.73
2018-11-27T21:01:19.656Z,40.98
2018-11-27T21:03:54.483Z,44.48
2018-11-27T21:06:29.013Z,43.48
2018-11-27T21:09:04.259Z,42.93
2018-11-27T21:11:39.260Z,46.55
2018-11-27T21:14:14.148Z,48.63
2018-11-27T21:16:49.227Z,44.38
2018-11-27T21:19:24.878Z,45.45
2018-11-27T21:22:00.181Z,45.25
2018-11-27T21:24:35.054Z,39.67
2018-11-27T21:27:11.959Z,49.85
2018-11-27T21:29:47.809Z,35.83
2018-11-27T21:32:22.514Z,44.00
2018-11-27T21:34:58.679Z,44.08
2018-11-27T21:37:34.123Z,46.00
2018-11-27T21:40:11.687Z,43.75
2018-11-27T21:42:48.381Z,40.95
2018-11-27T21:45:26.771Z,44.27
2018-11-27T21:48:02.286Z,59.83
2018-11-27T21:50:41.385Z,46.58
2018-11-27T21:53:16.966Z,39.78
2018-11-27T21:55:51.754Z,45.98
2018-11-27T21:58:26.362Z,50.12
2018-11-27T22:01:02.839Z,46.13
2018-11-27T22:03:37.443Z,47.83
2018-11-27T22:06:11.840Z,44.70
2018-11-27T22:08:48.845Z,40.80
2018-11-27T22:11:23.462Z,54.42
2018-11-27T22:13:58.181Z,51.80
2018-11-27T22:16:32.804Z,45.63
2018-11-27T22:19:07.903Z,52.30
2018-11-27T22:21:42.348Z,47.45
2018-11-27T22:24:17.168Z,40.17
2018-11-27T22:26:51.961Z,47.20
2018-11-27T22:29:26.491Z,56.75
2018-11-27T22:32:01.551Z,50.38
2018-11-27T22:37:14.601Z,48.85
2018-11-27T22:39:48.970Z,52.08
2018-11-27T22:42:23.513Z,47.17
2018-11-27T22:45:00.459Z,54.90
2018-11-27T22:47:36.314Z,46.25
2018-11-27T22:50:14.627Z,45.08
2018-11-27T22:52:49.077Z,49.58
2018-11-27T22:55:23.768Z,44.67
2018-11-27T22:57:59.123Z,47.55
2018-11-27T23:00:39.028Z,51.65
2018-11-27T23:03:13.547Z,50.33
2018-11-27T23:05:48.035Z,51.37
2018-11-27T23:08:22.948Z,54.13
2018-11-27T23:10:57.448Z,43.38
2018-11-27T23:13:33.194Z,51.30
2018-11-27T23:16:07.864Z,55.55
2018-11-27T23:18:42.440Z,55.90
2018-11-27T23:21:16.916Z,53.73
2018-11-27T23:23:51.579Z,47.67
2018-11-27T23:26:26.061Z,45.92
2018-11-27T23:29:01.362Z,54.23
2018-11-27T23:31:36.116Z,55.90
2018-11-27T23:34:13.209Z,54.00
2018-11-27T23:36:47.845Z,52.73
2018-11-27T23:39:22.484Z,57.40
2018-11-27T23:41:57.091Z,55.17
2018-11-27T23:44:32.066Z,47.95
2018-11-27T23:47:06.752Z,53.90
2018-11-27T23:49:41.292Z,47.60
2018-11-27T23:52:15.763Z,54.00
2018-11-27T23:54:50.947Z,47.05
2018-11-27T23:57:26.072Z,50.98
